createdAt,value
2023-09-03T00:00:44.850Z,97350.66
2023-09-03T00:03:12.626Z,97339.25
2023-09-03T00:05:49.026Z,97338.44
2023-09-03T00:08:16.577Z,97341.72
2023-09-03T00:10:44.146Z,97338.69
2023-09-03T00:13:13.055Z,97345.22
2023-09-03T00:15:41.125Z,97342.78
2023-09-03T00:18:11.045Z,97341.19
2023-09-03T00:20:40.908Z,97345.06
2023-09-03T00:23:08.760Z,97338.13
2023-09-03T00:25:37.284Z,97338.13
2023-09-03T00:28:05.373Z,97334.09
2023-09-03T00:30:34.372Z,97343.84
2023-09-03T00:33:02.081Z,97339.00
2023-09-03T00:35:29.692Z,97335.78
2023-09-03T00:37:57.283Z,97341.06
2023-09-03T00:40:24.847Z,97339.44
2023-09-03T00:42:52.414Z,97338.81
2023-09-03T00:45:20.029Z,97341.47
2023-09-03T00:47:49.297Z,97340.66
2023-09-03T00:50:17.154Z,97346.75
2023-09-03T00:52:44.906Z,97349.38
2023-09-03T00:55:12.547Z,97349.59
2023-09-03T00:57:40.266Z,97354.88
2023-09-03T01:00:09.185Z,97352.47
2023-09-03T01:02:37.828Z,97347.97
2023-09-03T01:05:07.551Z,97347.78
2023-09-03T01:07:35.191Z,97343.09
2023-09-03T01:10:03.243Z,97343.09
2023-09-03T01:12:37.132Z,97352.81
2023-09-03T01:15:14.226Z,97357.75
2023-09-03T01:17:47.667Z,97355.91
2023-09-03T01:20:20.054Z,97360.38
2023-09-03T01:23:22.605Z,97359.34
2023-09-03T01:26:13.408Z,97369.88
2023-09-03T01:28:43.696Z,97371.06
2023-09-03T01:31:13.315Z,97374.72
2023-09-03T01:33:43.370Z,97373.88
2023-09-03T01:36:12.728Z,97377.50
2023-09-03T01:38:41.428Z,97364.50
2023-09-03T01:41:10.033Z,97365.34
2023-09-03T01:43:37.869Z,97365.94
2023-09-03T01:46:09.382Z,97369.44
2023-09-03T01:48:55.388Z,97369.22
2023-09-03T01:51:30.939Z,97371.06
2023-09-03T01:54:05.366Z,97375.13
2023-09-03T01:56:38.660Z,97369.00
2023-09-03T01:59:17.058Z,97373.03
2023-09-03T02:01:47.285Z,97372.22
2023-09-03T02:04:15.113Z,97378.31
2023-09-03T02:06:46.731Z,97381.19
2023-09-03T02:09:14.621Z,97387.69
2023-09-03T02:11:42.252Z,97392.16
2023-09-03T02:14:09.877Z,97386.06
2023-09-03T02:16:37.531Z,97392.59
2023-09-03T02:19:06.593Z,97384.06
2023-09-03T02:21:34.208Z,97384.47
2023-09-03T02:24:01.867Z,97387.34
2023-09-03T02:26:29.468Z,97383.72
2023-09-03T02:28:57.066Z,97379.47
2023-09-03T02:31:24.873Z,97396.31
2023-09-03T02:33:52.536Z,97389.63
2023-09-03T02:36:21.495Z,97393.06
2023-09-03T02:38:49.047Z,97383.72
2023-09-03T02:41:16.584Z,97389.00
2023-09-03T02:43:44.106Z,97395.91
2023-09-03T02:46:11.723Z,97405.88
2023-09-03T02:48:39.370Z,97402.41
2023-09-03T02:51:07.023Z,97407.47
2023-09-03T02:53:35.925Z,97404.47
2023-09-03T02:56:03.731Z,97408.31
2023-09-03T02:58:31.306Z,97413.41
2023-09-03T03:01:05.328Z,97407.31
2023-09-03T03:03:32.857Z,97406.28
2023-09-03T03:06:00.441Z,97405.91
2023-09-03T03:08:28.009Z,97412.22
2023-09-03T03:11:06.351Z,97421.19
2023-09-03T03:13:33.924Z,97415.47
2023-09-03T03:16:06.144Z,97408.56
2023-09-03T03:18:34.994Z,97407.38
2023-09-03T03:21:07.009Z,97404.09
2023-09-03T03:23:34.829Z,97403.66
2023-09-03T03:26:04.714Z,97406.72
2023-09-03T03:28:34.375Z,97404.06
2023-09-03T03:31:10.326Z,97404.06
2023-09-03T03:33:38.253Z,97406.72
2023-09-03T03:36:06.195Z,97412.63
2023-09-03T03:38:34.156Z,97429.69
2023-09-03T03:41:10.735Z,97435.81
2023-09-03T03:43:38.659Z,97443.53
2023-09-03T03:46:07.251Z,97436.44
2023-09-03T03:48:35.338Z,97436.03
2023-09-03T03:51:03.455Z,97444.78
2023-09-03T03:53:31.329Z,97441.53
2023-09-03T03:55:59.998Z,97438.28
2023-09-03T03:58:30.472Z,97445.38
2023-09-03T04:00:58.365Z,97446.41
2023-09-03T04:03:28.564Z,97448.84
2023-09-03T04:06:00.041Z,97454.53
2023-09-03T04:08:28.629Z,97462.66
2023-09-03T04:10:59.657Z,97462.66
2023-09-03T04:13:29.009Z,97467.53
2023-09-03T04:15:57.105Z,97468.72
2023-09-03T04:18:25.178Z,97467.53
2023-09-03T04:20:54.009Z,97461.03
2023-09-03T04:23:21.869Z,97462.25
2023-09-03T04:25:49.653Z,97466.28
2023-09-03T04:28:17.222Z,97473.16
2023-09-03T04:30:46.183Z,97466.28
2023-09-03T04:33:14.496Z,97475.41
2023-09-03T04:35:42.141Z,97465.44
2023-09-03T04:38:10.393Z,97466.66
2023-09-03T04:40:38.545Z,97466.28
2023-09-03T04:43:07.289Z,97462.63
2023-09-03T04:45:34.922Z,97465.06
2023-09-03T04:48:04.046Z,97466.69
2023-09-03T04:50:32.000Z,97469.56
2023-09-03T04:52:59.592Z,97473.19
2023-09-03T04:55:27.188Z,97469.34
2023-09-03T04:57:54.809Z,97475.22
2023-09-03T05:00:22.613Z,97489.47
2023-09-03T05:02:50.356Z,97493.72
2023-09-03T05:05:19.823Z,97496.56
2023-09-03T05:07:48.371Z,97505.28
2023-09-03T05:10:16.672Z,97511.97
2023-09-03T05:12:44.869Z,97514.22
2023-09-03T05:15:13.865Z,97521.91
2023-09-03T05:17:41.810Z,97523.09
2023-09-03T05:20:10.467Z,97530.63
2023-09-03T05:22:39.540Z,97537.09
2023-09-03T05:25:08.512Z,97527.56
2023-09-03T05:27:38.500Z,97519.84
2023-09-03T05:30:08.060Z,97520.25
2023-09-03T05:32:35.610Z,97528.38
2023-09-03T05:35:03.186Z,97518.00
2023-09-03T05:37:30.854Z,97519.44
2023-09-03T05:39:59.791Z,97518.44
2023-09-03T05:42:27.353Z,97523.53
2023-09-03T05:44:56.445Z,97515.78
2023-09-03T05:47:24.304Z,97515.78
2023-09-03T05:49:56.183Z,97515.56
2023-09-03T05:52:23.843Z,97516.34
2023-09-03T05:54:52.179Z,97512.13
2023-09-03T05:57:21.855Z,97511.09
2023-09-03T05:59:51.100Z,97508.88
2023-09-03T06:02:19.051Z,97497.69
2023-09-03T06:04:46.646Z,97509.66
2023-09-03T06:07:14.645Z,97507.00
2023-09-03T06:09:42.407Z,97515.09
2023-09-03T06:12:10.196Z,97513.91
2023-09-03T06:14:41.087Z,97519.75
2023-09-03T06:17:08.981Z,97518.97
2023-09-03T06:19:36.553Z,97505.94
2023-09-03T06:22:04.232Z,97524.41
2023-09-03T06:24:31.887Z,97528.84
2023-09-03T06:26:59.489Z,97531.09
2023-09-03T06:29:27.503Z,97533.09
2023-09-03T06:31:56.614Z,97537.94
2023-09-03T06:34:26.491Z,97539.78
2023-09-03T06:36:54.061Z,97550.94
2023-09-03T06:39:21.799Z,97552.97
2023-09-03T06:41:49.340Z,97564.34
2023-09-03T06:44:17.540Z,97561.91
2023-09-03T06:46:45.159Z,97570.44
2023-09-03T06:49:14.044Z,97571.41
2023-09-03T06:51:41.804Z,97580.94
2023-09-03T06:54:09.648Z,97585.38
2023-09-03T06:56:37.221Z,97582.31
2023-09-03T06:59:05.036Z,97590.84
2023-09-03T07:01:33.161Z,97602.81
2023-09-03T07:04:01.034Z,97600.34
2023-09-03T07:06:30.325Z,97605.63
2023-09-03T07:08:58.134Z,97605.63
2023-09-03T07:11:26.036Z,97602.75
2023-09-03T07:13:53.956Z,97607.41
2023-09-03T07:16:21.862Z,97611.25
2023-09-03T07:18:49.760Z,97607.16
2023-09-03T07:21:17.600Z,97615.47
2023-09-03T07:23:46.885Z,97623.38
2023-09-03T07:26:15.581Z,97626.78
2023-09-03T07:28:43.369Z,97629.59
2023-09-03T07:31:11.380Z,97639.56
2023-09-03T07:33:39.789Z,97632.81
2023-09-03T07:36:12.131Z,97642.34
2023-09-03T07:38:40.176Z,97641.03
2023-09-03T07:41:09.240Z,97636.13
2023-09-03T07:43:37.277Z,97628.56
2023-09-03T07:46:06.377Z,97623.44
2023-09-03T07:48:35.563Z,97626.63
2023-09-03T07:51:03.609Z,97635.69
2023-09-03T07:53:33.897Z,97639.47
2023-09-03T07:56:02.084Z,97641.75
2023-09-03T07:58:31.504Z,97643.06
2023-09-03T08:00:59.780Z,97639.81
2023-09-03T08:03:33.778Z,97636.34
2023-09-03T08:06:02.178Z,97635.97
2023-09-03T08:08:30.523Z,97637.63
2023-09-03T08:10:58.564Z,97633.19
2023-09-03T08:13:26.797Z,97635.22
2023-09-03T08:15:56.286Z,97655.84
2023-09-03T08:18:24.779Z,97659.31
2023-09-03T08:20:53.596Z,97661.53
2023-09-03T08:23:22.116Z,97653.13
2023-09-03T08:25:50.282Z,97659.41
2023-09-03T08:28:18.295Z,97659.41
2023-09-03T08:30:48.737Z,97663.44
2023-09-03T08:33:18.185Z,97659.44
2023-09-03T08:35:46.898Z,97669.56
2023-09-03T08:38:15.150Z,97669.78
2023-09-03T08:40:45.043Z,97674.56
2023-09-03T08:43:16.943Z,97675.19
2023-09-03T08:45:52.275Z,97673.94
2023-09-03T08:48:22.271Z,97673.78
2023-09-03T08:50:50.565Z,97679.00
2023-09-03T08:53:19.080Z,97668.59
2023-09-03T08:55:46.900Z,97674.66
2023-09-03T08:58:16.577Z,97676.09
2023-09-03T09:00:44.745Z,97675.81
2023-09-03T09:03:13.221Z,97687.59
2023-09-03T09:05:43.972Z,97687.50
2023-09-03T09:08:12.021Z,97682.94
2023-09-03T09:10:48.285Z,97694.59
2023-09-03T09:13:21.832Z,97689.88
2023-09-03T09:15:49.707Z,97679.03
2023-09-03T09:18:17.392Z,97687.69
2023-09-03T09:20:48.457Z,97687.41
2023-09-03T09:23:22.882Z,97685.94
2023-09-03T09:25:51.437Z,97690.41
2023-09-03T09:28:19.058Z,97693.28
2023-09-03T09:30:56.835Z,97690.38
2023-09-03T09:33:25.221Z,97675.69
2023-09-03T09:35:55.040Z,97688.47
2023-09-03T09:38:36.803Z,97688.28
2023-09-03T09:41:22.395Z,97691.41
2023-09-03T09:43:50.136Z,97688.56
2023-09-03T09:46:26.973Z,97684.88
2023-09-03T09:48:58.699Z,97679.28
2023-09-03T09:51:28.848Z,97682.25
2023-09-03T09:53:57.691Z,97683.09
2023-09-03T09:56:29.919Z,97681.22
2023-09-03T09:58:59.358Z,97675.03
2023-09-03T10:01:28.561Z,97669.09
2023-09-03T10:03:56.656Z,97672.59
2023-09-03T10:06:25.195Z,97670.44
2023-09-03T10:08:54.132Z,97675.00
2023-09-03T10:11:22.222Z,97674.19
2023-09-03T10:13:50.467Z,97670.97
2023-09-03T10:16:21.550Z,97680.06
2023-09-03T10:18:51.262Z,97681.44
2023-09-03T10:21:23.385Z,97674.19
2023-09-03T10:23:58.060Z,97680.91
2023-09-03T10:26:30.984Z,97683.34
2023-09-03T10:29:05.226Z,97678.50
2023-09-03T10:31:35.576Z,97679.03
2023-09-03T10:34:03.619Z,97670.72
2023-09-03T10:36:31.834Z,97675.81
2023-09-03T10:39:23.293Z,97665.09
2023-09-03T10:42:11.492Z,97669.13
2023-09-03T10:44:43.292Z,97673.69
2023-09-03T10:47:15.134Z,97666.72
2023-09-03T10:49:43.091Z,97669.41
2023-09-03T10:52:36.205Z,97669.66
2023-09-03T10:55:21.815Z,97670.72
2023-09-03T10:57:50.769Z,97672.03
2023-09-03T11:00:22.369Z,97669.09
2023-09-03T11:03:23.989Z,97673.38
2023-09-03T11:06:20.039Z,97670.16
2023-09-03T11:08:47.964Z,97681.72
2023-09-03T11:11:23.449Z,97688.66
2023-09-03T11:13:52.414Z,97685.97
2023-09-03T11:16:20.436Z,97685.47
2023-09-03T11:18:51.558Z,97688.41
2023-09-03T11:21:19.205Z,97684.16
2023-09-03T11:24:00.724Z,97677.44
2023-09-03T11:26:30.032Z,97686.03
2023-09-03T11:28:58.245Z,97679.31
2023-09-03T11:31:26.587Z,97684.97
2023-09-03T11:33:54.808Z,97680.63
2023-09-03T11:36:22.846Z,97678.75
2023-09-03T11:38:51.259Z,97677.09
2023-09-03T11:41:19.770Z,97676.25
2023-09-03T11:43:49.392Z,97672.97
2023-09-03T11:46:18.306Z,97671.31
2023-09-03T11:48:50.306Z,97663.25
2023-09-03T11:51:27.448Z,97664.88
2023-09-03T11:53:56.299Z,97669.69
2023-09-03T11:56:26.047Z,97675.88
2023-09-03T11:58:59.640Z,97663.28
2023-09-03T12:01:27.723Z,97668.16
2023-09-03T12:03:55.611Z,97676.72
2023-09-03T12:06:23.297Z,97680.19
2023-09-03T12:08:50.972Z,97680.94
2023-09-03T12:11:18.598Z,97676.63
2023-09-03T12:13:46.210Z,97679.78
2023-09-03T12:16:16.635Z,97662.13
2023-09-03T12:18:56.298Z,97669.06
2023-09-03T12:21:32.814Z,97663.16
2023-09-03T12:24:00.525Z,97655.97
2023-09-03T12:26:28.176Z,97665.91
2023-09-03T12:28:57.368Z,97669.72
2023-09-03T12:31:41.409Z,97667.59
2023-09-03T12:34:09.667Z,97665.97
2023-09-03T12:36:55.451Z,97672.13
2023-09-03T12:39:30.318Z,97664.88
2023-09-03T12:41:58.035Z,97659.75
2023-09-03T12:44:27.573Z,97656.53
2023-09-03T12:46:56.802Z,97660.25
2023-09-03T12:49:25.053Z,97650.63
2023-09-03T12:51:52.702Z,97645.50
2023-09-03T12:54:20.599Z,97649.00
2023-09-03T12:56:48.380Z,97648.75
2023-09-03T12:59:16.037Z,97647.66
2023-09-03T13:01:43.935Z,97651.16
2023-09-03T13:04:15.447Z,97647.94
2023-09-03T13:06:43.793Z,97656.22
2023-09-03T13:09:11.517Z,97650.31
2023-09-03T13:11:39.548Z,97649.78
2023-09-03T13:14:07.418Z,97652.44
2023-09-03T13:16:35.360Z,97649.75
2023-09-03T13:19:03.085Z,97636.09
2023-09-03T13:21:36.795Z,97640.88
2023-09-03T13:24:04.946Z,97639.78
2023-09-03T13:26:32.623Z,97638.44
2023-09-03T13:29:00.231Z,97641.13
2023-09-03T13:31:27.908Z,97643.50
2023-09-03T13:33:57.266Z,97650.19
2023-09-03T13:36:24.960Z,97642.41
2023-09-03T13:38:54.145Z,97650.19
2023-09-03T13:41:24.062Z,97649.94
2023-09-03T13:43:52.218Z,97649.69
2023-09-03T13:46:22.527Z,97650.22
2023-09-03T13:48:50.713Z,97656.63
2023-09-03T13:51:18.422Z,97654.22
2023-09-03T13:53:47.407Z,97646.47
2023-09-03T13:56:16.407Z,97655.28
2023-09-03T13:58:44.014Z,97643.22
2023-09-03T14:01:11.690Z,97649.34
2023-09-03T14:03:39.470Z,97641.00
2023-09-03T14:06:08.108Z,97644.22
2023-09-03T14:08:35.898Z,97646.91
2023-09-03T14:11:03.601Z,97643.91
2023-09-03T14:13:32.877Z,97648.41
2023-09-03T14:16:01.150Z,97647.03
2023-09-03T14:18:29.202Z,97645.94
2023-09-03T14:20:57.244Z,97649.94
2023-09-03T14:23:25.219Z,97649.09
2023-09-03T14:25:53.094Z,97642.38
2023-09-03T14:28:20.991Z,97637.00
2023-09-03T14:30:50.364Z,97638.03
2023-09-03T14:33:18.959Z,97635.06
2023-09-03T14:35:48.009Z,97641.47
2023-09-03T14:38:15.651Z,97640.69
2023-09-03T14:40:50.311Z,97635.56
2023-09-03T14:43:17.900Z,97637.94
2023-09-03T14:45:45.488Z,97644.59
2023-09-03T14:48:14.817Z,97645.91
2023-09-03T14:50:42.785Z,97641.59
2023-09-03T14:53:10.482Z,97638.94
2023-09-03T14:55:43.151Z,97642.91
2023-09-03T14:58:10.765Z,97638.34
2023-09-03T15:00:38.384Z,97631.88
2023-09-03T15:03:06.740Z,97631.59
2023-09-03T15:05:35.804Z,97625.94
2023-09-03T15:08:03.492Z,97631.81
2023-09-03T15:10:31.401Z,97634.19
2023-09-03T15:12:59.042Z,97639.22
2023-09-03T15:15:26.672Z,97635.44
2023-09-03T15:17:54.343Z,97641.28
2023-09-03T15:20:22.003Z,97637.50
2023-09-03T15:22:51.033Z,97649.50
2023-09-03T15:25:18.974Z,97649.19
2023-09-03T15:27:46.614Z,97644.13
2023-09-03T15:30:14.577Z,97643.28
2023-09-03T15:32:42.257Z,97646.47
2023-09-03T15:35:10.199Z,97643.75
2023-09-03T15:37:37.866Z,97645.31
2023-09-03T15:40:08.788Z,97645.78
2023-09-03T15:42:36.473Z,97646.28
2023-09-03T15:45:04.756Z,97643.56
2023-09-03T15:47:32.550Z,97648.25
2023-09-03T15:50:00.308Z,97641.81
2023-09-03T15:52:28.109Z,97653.00
2023-09-03T15:54:55.996Z,97654.53
2023-09-03T15:57:25.372Z,97650.28
2023-09-03T15:59:53.177Z,97662.81
2023-09-03T16:02:21.114Z,97662.72
2023-09-03T16:04:48.962Z,97662.91
2023-09-03T16:07:18.696Z,97666.66
2023-09-03T16:09:46.743Z,97674.09
2023-09-03T16:12:14.944Z,97668.44
2023-09-03T16:14:44.286Z,97663.34
2023-09-03T16:17:12.339Z,97663.34
2023-09-03T16:19:40.234Z,97666.50
2023-09-03T16:22:08.060Z,97668.84
2023-09-03T16:24:35.990Z,97674.94
2023-09-03T16:27:04.365Z,97670.34
2023-09-03T16:29:33.779Z,97669.47
2023-09-03T16:32:08.074Z,97662.97
2023-09-03T16:34:52.501Z,97669.06
2023-09-03T16:37:23.612Z,97669.53
2023-09-03T16:39:51.994Z,97666.53
2023-09-03T16:42:20.805Z,97669.47
2023-09-03T16:44:50.852Z,97670.75
2023-09-03T16:47:26.202Z,97674.47
2023-09-03T16:49:58.733Z,97672.53
2023-09-03T16:52:29.590Z,97677.06
2023-09-03T16:55:00.281Z,97668.50
2023-09-03T16:57:31.968Z,97667.69
2023-09-03T17:00:00.771Z,97669.78
2023-09-03T17:02:31.441Z,97670.53
2023-09-03T17:05:02.334Z,97664.28
2023-09-03T17:07:41.190Z,97675.44
2023-09-03T17:10:12.691Z,97674.31
2023-09-03T17:12:46.880Z,97671.56
2023-09-03T17:15:18.625Z,97675.78
2023-09-03T17:17:52.587Z,97671.13
2023-09-03T17:20:22.617Z,97665.16
2023-09-03T17:23:08.166Z,97667.75
2023-09-03T17:25:37.468Z,97668.91
2023-09-03T17:28:20.366Z,97660.03
2023-09-03T17:30:57.574Z,97668.97
2023-09-03T17:33:28.325Z,97670.50
2023-09-03T17:35:58.272Z,97667.97
2023-09-03T17:38:30.893Z,97675.06
2023-09-03T17:41:02.274Z,97674.16
2023-09-03T17:43:34.881Z,97680.78
2023-09-03T17:46:04.047Z,97683.31
2023-09-03T17:48:34.268Z,97682.44
2023-09-03T17:51:12.503Z,97686.84
2023-09-03T17:53:42.645Z,97693.66
2023-09-03T17:56:13.395Z,97693.56
2023-09-03T17:58:44.272Z,97692.31
2023-09-03T18:01:12.919Z,97695.53
2023-09-03T18:03:45.670Z,97692.91
2023-09-03T18:06:16.948Z,97688.88
2023-09-03T18:08:49.556Z,97695.00
2023-09-03T18:11:20.383Z,97693.72
2023-09-03T18:13:49.301Z,97685.50
2023-09-03T18:16:21.230Z,97697.31
2023-09-03T18:18:52.172Z,97709.03
2023-09-03T18:21:22.649Z,97705.91
2023-09-03T18:23:52.505Z,97708.09
2023-09-03T18:26:24.238Z,97710.03
2023-09-03T18:28:52.938Z,97712.41
2023-09-03T18:31:23.939Z,97723.34
2023-09-03T18:33:58.561Z,97717.34
2023-09-03T18:36:27.498Z,97720.88
2023-09-03T18:38:58.403Z,97719.75
2023-09-03T18:41:27.337Z,97716.13
2023-09-03T18:43:56.196Z,97716.22
2023-09-03T18:46:25.087Z,97705.06
2023-09-03T18:48:58.357Z,97717.97
2023-09-03T18:51:26.931Z,97718.03
2023-09-03T18:53:57.716Z,97717.09
2023-09-03T18:56:26.526Z,97722.25
2023-09-03T18:58:56.254Z,97730.22
2023-09-03T19:01:28.754Z,97732.28
2023-09-03T19:03:59.528Z,97713.34
2023-09-03T19:06:28.555Z,97726.22
2023-09-03T19:08:59.632Z,97733.59
2023-09-03T19:14:17.070Z,97732.06
2023-09-03T19:16:48.895Z,97730.63
2023-09-03T19:19:22.826Z,97734.78
2023-09-03T19:21:52.422Z,97742.38
2023-09-03T19:24:27.304Z,97744.63
2023-09-03T19:26:57.333Z,97752.44
2023-09-03T19:29:27.346Z,97751.25
2023-09-03T19:32:03.932Z,97746.81
2023-09-03T19:34:52.396Z,97741.38
2023-09-03T19:40:14.965Z,97745.06
2023-09-03T19:42:53.871Z,97751.59
2023-09-03T19:45:33.450Z,97745.34
2023-09-03T19:48:32.355Z,97741.13
2023-09-03T19:51:02.816Z,97736.09
2023-09-03T19:53:32.853Z,97739.38
2023-09-03T19:56:06.084Z,97734.13
2023-09-03T19:58:35.013Z,97726.63
2023-09-03T20:01:07.075Z,97718.88
2023-09-03T20:03:36.440Z,97717.50
2023-09-03T20:06:07.104Z,97718.13
2023-09-03T20:08:36.079Z,97722.22
2023-09-03T20:11:06.072Z,97722.88
2023-09-03T20:13:40.266Z,97719.03
2023-09-03T20:16:09.099Z,97723.72
2023-09-03T20:18:38.849Z,97720.94
2023-09-03T20:21:08.952Z,97722.38
2023-09-03T20:23:39.495Z,97723.00
2023-09-03T20:26:09.952Z,97726.31
2023-09-03T20:28:46.486Z,97722.41
2023-09-03T20:31:17.135Z,97725.47
2023-09-03T20:33:46.465Z,97720.63
2023-09-03T20:36:16.822Z,97731.63
2023-09-03T20:38:45.792Z,97728.16
2023-09-03T20:41:14.778Z,97719.38
2023-09-03T20:43:43.836Z,97724.66
2023-09-03T20:46:13.478Z,97727.50
2023-09-03T20:48:42.455Z,97719.38
2023-09-03T20:51:11.033Z,97722.47
2023-09-03T20:53:41.407Z,97713.31
2023-09-03T20:56:10.173Z,97712.91
2023-09-03T20:58:38.879Z,97713.34
2023-09-03T21:01:14.155Z,97707.66
2023-09-03T21:03:43.964Z,97700.34
2023-09-03T21:06:12.958Z,97700.19
2023-09-03T21:08:43.772Z,97708.97
2023-09-03T21:11:12.477Z,97701.22
2023-09-03T21:13:42.693Z,97704.50
2023-09-03T21:16:11.497Z,97703.50
2023-09-03T21:18:40.254Z,97704.13
2023-09-03T21:21:08.968Z,97710.84
2023-09-03T21:23:37.618Z,97708.63
2023-09-03T21:26:15.135Z,97713.75
2023-09-03T21:28:44.334Z,97714.38
2023-09-03T21:31:19.663Z,97716.81
2023-09-03T21:33:48.927Z,97720.50
2023-09-03T21:36:20.729Z,97727.63
2023-09-03T21:38:50.468Z,97715.59
2023-09-03T21:41:20.709Z,97723.16
2023-09-03T21:43:52.778Z,97722.53
2023-09-03T21:46:21.581Z,97714.41
2023-09-03T21:48:50.438Z,97708.91
2023-09-03T21:51:20.553Z,97717.03
2023-09-03T21:53:50.272Z,97726.19
2023-09-03T21:56:20.399Z,97722.53
2023-09-03T21:58:49.561Z,97729.25
2023-09-03T22:01:18.427Z,97729.47
2023-09-03T22:03:47.212Z,97730.47
2023-09-03T22:06:16.247Z,97738.19
2023-09-03T22:08:45.204Z,97744.09
2023-09-03T22:11:13.851Z,97734.72
2023-09-03T22:13:43.815Z,97734.34
2023-09-03T22:16:12.951Z,97730.66
2023-09-03T22:18:55.623Z,97722.53
2023-09-03T22:21:26.343Z,97716.63
2023-09-03T22:23:54.912Z,97715.19
2023-09-03T22:26:23.698Z,97711.53
2023-09-03T22:28:53.946Z,97715.41
2023-09-03T22:31:22.531Z,97711.16
2023-09-03T22:33:51.124Z,97718.50
2023-09-03T22:36:19.565Z,97723.56
2023-09-03T22:38:48.075Z,97718.69
2023-09-03T22:41:16.936Z,97710.78
2023-09-03T22:43:45.693Z,97708.53
2023-09-03T22:46:15.516Z,97707.53
2023-09-03T22:48:44.130Z,97710.78
2023-09-03T22:51:12.626Z,97718.28
2023-09-03T22:53:41.402Z,97721.34
2023-09-03T22:56:10.627Z,97714.44
2023-09-03T22:58:40.208Z,97715.66
2023-09-03T23:01:08.837Z,97718.50
2023-09-03T23:03:39.028Z,97720.75
2023-09-03T23:06:07.499Z,97720.53
2023-09-03T23:08:36.007Z,97727.03
2023-09-03T23:11:04.533Z,97725.41
2023-09-03T23:13:33.472Z,97724.63
2023-09-03T23:16:01.717Z,97716.06
2023-09-03T23:18:33.207Z,97715.66
2023-09-03T23:21:09.751Z,97711.59
2023-09-03T23:23:39.516Z,97721.56
2023-09-03T23:26:07.706Z,97732.13
2023-09-03T23:28:36.328Z,97738.41
2023-09-03T23:31:04.752Z,97740.22
2023-09-03T23:33:35.042Z,97737.59
2023-09-03T23:36:04.639Z,97750.97
2023-09-03T23:38:33.949Z,97740.44
2023-09-03T23:41:02.460Z,97737.59
2023-09-03T23:43:31.040Z,97734.34
2023-09-03T23:45:59.876Z,97742.06
2023-09-03T23:48:28.331Z,97742.88
2023-09-03T23:50:56.493Z,97730.09
2023-09-03T23:53:26.830Z,97739.63
2023-09-03T23:55:55.460Z,97732.50
2023-09-03T23:58:24.225Z,97726.22
